sensor_id;sensor_type;location;lat;lon;timestamp;P1;durP1;ratioP1;P2;durP2;ratioP2
11439;SDS011;5776;51.814;4.510;2024-01-25T00:00:24;18.90;;;3.17;;
11439;SDS011;5776;51.814;4.510;2024-01-25T00:02:50;21.27;;;3.77;;
11439;SDS011;5776;51.814;4.510;2024-01-25T00:05:17;22.13;;;4.27;;
11439;SDS011;5776;51.814;4.510;2024-01-25T00:07:46;20.23;;;4.60;;
11439;SDS011;5776;51.814;4.510;2024-01-25T00:10:12;25.87;;;4.07;;
11439;SDS011;5776;51.814;4.510;2024-01-25T00:12:39;22.87;;;4.30;;
11439;SDS011;5776;51.814;4.510;2024-01-25T00:15:06;30.40;;;4.77;;
11439;SDS011;5776;51.814;4.510;2024-01-25T00:17:34;28.13;;;5.23;;
11439;SDS011;5776;51.814;4.510;2024-01-25T00:20:00;25.17;;;3.73;;
11439;SDS011;5776;51.814;4.510;2024-01-25T00:22:26;18.80;;;3.70;;
11439;SDS011;5776;51.814;4.510;2024-01-25T00:24:52;28.93;;;4.07;;
11439;SDS011;5776;51.814;4.510;2024-01-25T00:27:18;25.73;;;4.53;;
11439;SDS011;5776;51.814;4.510;2024-01-25T00:29:43;19.57;;;4.23;;
11439;SDS011;5776;51.814;4.510;2024-01-25T00:32:09;21.27;;;4.23;;
11439;SDS011;5776;51.814;4.510;2024-01-25T00:34:35;31.27;;;4.37;;
11439;SDS011;5776;51.814;4.510;2024-01-25T00:37:01;20.47;;;4.60;;
11439;SDS011;5776;51.814;4.510;2024-01-25T00:39:27;21.60;;;4.13;;
11439;SDS011;5776;51.814;4.510;2024-01-25T00:41:57;30.03;;;4.57;;
11439;SDS011;5776;51.814;4.510;2024-01-25T00:44:28;17.43;;;3.80;;
11439;SDS011;5776;51.814;4.510;2024-01-25T00:46:54;19.13;;;3.53;;
11439;SDS011;5776;51.814;4.510;2024-01-25T00:49:20;19.57;;;3.73;;
11439;SDS011;5776;51.814;4.510;2024-01-25T00:51:47;22.30;;;3.80;;
11439;SDS011;5776;51.814;4.510;2024-01-25T00:54:14;22.83;;;3.57;;
11439;SDS011;5776;51.814;4.510;2024-01-25T00:56:40;18.67;;;2.80;;
11439;SDS011;5776;51.814;4.510;2024-01-25T00:59:07;19.90;;;3.40;;
11439;SDS011;5776;51.814;4.510;2024-01-25T01:01:33;18.07;;;3.67;;
11439;SDS011;5776;51.814;4.510;2024-01-25T01:03:59;15.27;;;3.17;;
11439;SDS011;5776;51.814;4.510;2024-01-25T01:06:25;21.53;;;3.13;;
11439;SDS011;5776;51.814;4.510;2024-01-25T01:08:51;17.93;;;3.40;;
11439;SDS011;5776;51.814;4.510;2024-01-25T01:11:18;17.77;;;3.57;;
11439;SDS011;5776;51.814;4.510;2024-01-25T01:13:44;25.40;;;3.60;;
11439;SDS011;5776;51.814;4.510;2024-01-25T01:16:11;14.33;;;3.33;;
11439;SDS011;5776;51.814;4.510;2024-01-25T01:18:37;19.17;;;3.57;;
11439;SDS011;5776;51.814;4.510;2024-01-25T01:21:04;18.57;;;3.80;;
11439;SDS011;5776;51.814;4.510;2024-01-25T01:23:30;19.27;;;3.70;;
11439;SDS011;5776;51.814;4.510;2024-01-25T01:25:55;20.97;;;3.73;;
11439;SDS011;5776;51.814;4.510;2024-01-25T01:28:21;19.13;;;3.83;;
11439;SDS011;5776;51.814;4.510;2024-01-25T01:30:47;19.87;;;3.47;;
11439;SDS011;5776;51.814;4.510;2024-01-25T01:33:13;16.37;;;3.00;;
11439;SDS011;5776;51.814;4.510;2024-01-25T01:35:39;16.77;;;3.87;;
11439;SDS011;5776;51.814;4.510;2024-01-25T01:38:05;16.80;;;4.00;;
11439;SDS011;5776;51.814;4.510;2024-01-25T01:40:32;19.70;;;4.60;;
11439;SDS011;5776;51.814;4.510;2024-01-25T01:43:01;20.77;;;3.47;;
11439;SDS011;5776;51.814;4.510;2024-01-25T01:45:27;25.57;;;3.43;;
11439;SDS011;5776;51.814;4.510;2024-01-25T01:47:54;18.70;;;3.67;;
11439;SDS011;5776;51.814;4.510;2024-01-25T01:50:21;18.10;;;3.33;;
11439;SDS011;5776;51.814;4.510;2024-01-25T01:52:48;12.57;;;3.30;;
11439;SDS011;5776;51.814;4.510;2024-01-25T01:55:15;17.17;;;3.90;;
11439;SDS011;5776;51.814;4.510;2024-01-25T01:57:42;21.13;;;4.20;;
11439;SDS011;5776;51.814;4.510;2024-01-25T02:00:09;24.37;;;4.07;;
11439;SDS011;5776;51.814;4.510;2024-01-25T02:02:35;21.60;;;4.50;;
11439;SDS011;5776;51.814;4.510;2024-01-25T02:05:01;17.00;;;3.90;;
11439;SDS011;5776;51.814;4.510;2024-01-25T02:07:28;21.80;;;4.23;;
11439;SDS011;5776;51.814;4.510;2024-01-25T02:09:55;20.27;;;3.70;;
11439;SDS011;5776;51.814;4.510;2024-01-25T02:12:22;18.30;;;2.77;;
11439;SDS011;5776;51.814;4.510;2024-01-25T02:14:47;17.47;;;3.60;;
11439;SDS011;5776;51.814;4.510;2024-01-25T02:17:13;14.40;;;2.63;;
11439;SDS011;5776;51.814;4.510;2024-01-25T02:19:39;21.73;;;3.63;;
11439;SDS011;5776;51.814;4.510;2024-01-25T02:22:05;19.17;;;3.80;;
11439;SDS011;5776;51.814;4.510;2024-01-25T02:24:31;17.00;;;3.93;;
11439;SDS011;5776;51.814;4.510;2024-01-25T02:26:57;13.63;;;2.67;;
11439;SDS011;5776;51.814;4.510;2024-01-25T02:29:23;17.17;;;3.00;;
11439;SDS011;5776;51.814;4.510;2024-01-25T02:31:49;14.93;;;3.73;;
11439;SDS011;5776;51.814;4.510;2024-01-25T02:34:15;9.93;;;2.50;;
11439;SDS011;5776;51.814;4.510;2024-01-25T02:36:41;15.93;;;3.10;;
11439;SDS011;5776;51.814;4.510;2024-01-25T02:39:08;14.33;;;2.60;;
11439;SDS011;5776;51.814;4.510;2024-01-25T02:41:35;26.80;;;3.10;;
11439;SDS011;5776;51.814;4.510;2024-01-25T02:44:00;12.30;;;2.70;;
11439;SDS011;5776;51.814;4.510;2024-01-25T02:46:26;13.77;;;2.70;;
11439;SDS011;5776;51.814;4.510;2024-01-25T02:48:52;14.50;;;3.10;;
11439;SDS011;5776;51.814;4.510;2024-01-25T02:51:18;18.27;;;3.00;;
11439;SDS011;5776;51.814;4.510;2024-01-25T02:53:45;12.23;;;3.30;;
11439;SDS011;5776;51.814;4.510;2024-01-25T02:56:11;14.90;;;3.00;;
11439;SDS011;5776;51.814;4.510;2024-01-25T02:58:37;17.30;;;3.63;;
11439;SDS011;5776;51.814;4.510;2024-01-25T03:01:04;17.47;;;3.47;;
11439;SDS011;5776;51.814;4.510;2024-01-25T03:03:30;12.37;;;2.33;;
11439;SDS011;5776;51.814;4.510;2024-01-25T03:05:55;13.57;;;3.00;;
11439;SDS011;5776;51.814;4.510;2024-01-25T03:08:22;19.60;;;3.40;;
11439;SDS011;5776;51.814;4.510;2024-01-25T03:10:48;14.47;;;2.47;;
11439;SDS011;5776;51.814;4.510;2024-01-25T03:13:15;16.83;;;3.10;;
11439;SDS011;5776;51.814;4.510;2024-01-25T03:15:44;14.53;;;3.03;;
11439;SDS011;5776;51.814;4.510;2024-01-25T03:18:10;18.93;;;3.17;;
11439;SDS011;5776;51.814;4.510;2024-01-25T03:20:36;14.17;;;2.43;;
11439;SDS011;5776;51.814;4.510;2024-01-25T03:23:01;11.53;;;2.90;;
11439;SDS011;5776;51.814;4.510;2024-01-25T03:25:28;19.33;;;2.87;;
11439;SDS011;5776;51.814;4.510;2024-01-25T03:27:55;14.57;;;2.43;;
11439;SDS011;5776;51.814;4.510;2024-01-25T03:30:21;15.13;;;2.90;;
11439;SDS011;5776;51.814;4.510;2024-01-25T03:32:48;14.87;;;2.90;;
11439;SDS011;5776;51.814;4.510;2024-01-25T03:35:15;20.27;;;3.30;;
11439;SDS011;5776;51.814;4.510;2024-01-25T03:37:41;14.63;;;3.50;;
11439;SDS011;5776;51.814;4.510;2024-01-25T03:40:07;18.90;;;3.40;;
11439;SDS011;5776;51.814;4.510;2024-01-25T03:42:33;15.17;;;3.00;;
11439;SDS011;5776;51.814;4.510;2024-01-25T03:44:59;8.20;;;1.83;;
11439;SDS011;5776;51.814;4.510;2024-01-25T03:47:24;15.67;;;2.67;;
11439;SDS011;5776;51.814;4.510;2024-01-25T03:49:50;21.50;;;3.70;;
11439;SDS011;5776;51.814;4.510;2024-01-25T03:52:16;19.13;;;3.10;;
11439;SDS011;5776;51.814;4.510;2024-01-25T03:54:42;19.33;;;3.90;;
11439;SDS011;5776;51.814;4.510;2024-01-25T03:57:09;12.77;;;3.27;;
11439;SDS011;5776;51.814;4.510;2024-01-25T03:59:35;17.03;;;3.27;;
11439;SDS011;5776;51.814;4.510;2024-01-25T04:02:01;16.13;;;2.87;;
11439;SDS011;5776;51.814;4.510;2024-01-25T04:04:27;14.30;;;2.67;;
11439;SDS011;5776;51.814;4.510;2024-01-25T04:06:52;14.97;;;3.37;;
11439;SDS011;5776;51.814;4.510;2024-01-25T04:09:19;20.70;;;3.70;;
11439;SDS011;5776;51.814;4.510;2024-01-25T04:11:45;17.10;;;3.40;;
11439;SDS011;5776;51.814;4.510;2024-01-25T04:14:11;10.43;;;2.30;;
11439;SDS011;5776;51.814;4.510;2024-01-25T04:16:37;8.73;;;2.00;;
11439;SDS011;5776;51.814;4.510;2024-01-25T04:19:03;14.20;;;2.70;;
11439;SDS011;5776;51.814;4.510;2024-01-25T04:21:29;18.53;;;2.50;;
11439;SDS011;5776;51.814;4.510;2024-01-25T04:23:55;10.10;;;2.50;;
11439;SDS011;5776;51.814;4.510;2024-01-25T04:26:22;14.37;;;3.00;;
11439;SDS011;5776;51.814;4.510;2024-01-25T04:28:47;11.80;;;2.30;;
11439;SDS011;5776;51.814;4.510;2024-01-25T04:31:13;17.33;;;4.23;;
11439;SDS011;5776;51.814;4.510;2024-01-25T04:33:39;17.13;;;3.80;;
11439;SDS011;5776;51.814;4.510;2024-01-25T04:36:06;14.07;;;2.87;;
11439;SDS011;5776;51.814;4.510;2024-01-25T04:38:32;6.53;;;2.17;;
11439;SDS011;5776;51.814;4.510;2024-01-25T04:40:58;11.97;;;2.43;;
11439;SDS011;5776;51.814;4.510;2024-01-25T04:43:24;9.03;;;2.13;;
11439;SDS011;5776;51.814;4.510;2024-01-25T04:45:49;13.37;;;3.00;;
11439;SDS011;5776;51.814;4.510;2024-01-25T04:48:15;10.87;;;2.87;;
11439;SDS011;5776;51.814;4.510;2024-01-25T04:50:41;11.17;;;2.10;;
11439;SDS011;5776;51.814;4.510;2024-01-25T04:53:07;12.57;;;2.43;;
11439;SDS011;5776;51.814;4.510;2024-01-25T04:55:33;14.87;;;2.53;;
11439;SDS011;5776;51.814;4.510;2024-01-25T04:57:59;14.27;;;2.70;;
11439;SDS011;5776;51.814;4.510;2024-01-25T05:00:25;17.00;;;2.60;;
11439;SDS011;5776;51.814;4.510;2024-01-25T05:02:52;21.00;;;3.43;;
11439;SDS011;5776;51.814;4.510;2024-01-25T05:05:18;7.93;;;2.07;;
11439;SDS011;5776;51.814;4.510;2024-01-25T05:07:45;13.23;;;2.50;;
11439;SDS011;5776;51.814;4.510;2024-01-25T05:10:11;13.27;;;2.97;;
11439;SDS011;5776;51.814;4.510;2024-01-25T05:12:37;17.03;;;3.37;;
11439;SDS011;5776;51.814;4.510;2024-01-25T05:15:03;18.63;;;2.93;;
11439;SDS011;5776;51.814;4.510;2024-01-25T05:17:29;14.33;;;3.20;;
11439;SDS011;5776;51.814;4.510;2024-01-25T05:19:55;12.23;;;2.97;;
11439;SDS011;5776;51.814;4.510;2024-01-25T05:22:21;9.73;;;2.80;;
11439;SDS011;5776;51.814;4.510;2024-01-25T05:24:47;18.97;;;2.97;;
11439;SDS011;5776;51.814;4.510;2024-01-25T05:27:13;14.00;;;2.97;;
11439;SDS011;5776;51.814;4.510;2024-01-25T05:29:38;17.73;;;2.87;;
11439;SDS011;5776;51.814;4.510;2024-01-25T05:32:04;13.00;;;2.80;;
11439;SDS011;5776;51.814;4.510;2024-01-25T05:34:30;6.10;;;1.80;;
11439;SDS011;5776;51.814;4.510;2024-01-25T05:36:56;11.03;;;2.63;;
11439;SDS011;5776;51.814;4.510;2024-01-25T05:39:22;9.00;;;2.13;;
11439;SDS011;5776;51.814;4.510;2024-01-25T05:41:48;13.67;;;3.07;;
11439;SDS011;5776;51.814;4.510;2024-01-25T05:44:14;14.50;;;3.27;;
11439;SDS011;5776;51.814;4.510;2024-01-25T05:46:40;21.73;;;5.60;;
11439;SDS011;5776;51.814;4.510;2024-01-25T05:49:06;13.20;;;3.90;;
11439;SDS011;5776;51.814;4.510;2024-01-25T05:51:31;13.47;;;3.10;;
11439;SDS011;5776;51.814;4.510;2024-01-25T05:53:57;15.37;;;3.07;;
11439;SDS011;5776;51.814;4.510;2024-01-25T05:56:23;8.80;;;2.70;;
11439;SDS011;5776;51.814;4.510;2024-01-25T05:58:52;16.17;;;2.80;;
11439;SDS011;5776;51.814;4.510;2024-01-25T06:01:18;7.83;;;1.87;;
11439;SDS011;5776;51.814;4.510;2024-01-25T06:03:45;19.47;;;3.17;;
11439;SDS011;5776;51.814;4.510;2024-01-25T06:06:11;12.83;;;2.80;;
11439;SDS011;5776;51.814;4.510;2024-01-25T06:08:36;13.63;;;2.63;;
11439;SDS011;5776;51.814;4.510;2024-01-25T06:11:02;14.40;;;2.83;;
11439;SDS011;5776;51.814;4.510;2024-01-25T06:13:27;7.70;;;2.70;;
11439;SDS011;5776;51.814;4.510;2024-01-25T06:15:53;4.93;;;1.73;;
11439;SDS011;5776;51.814;4.510;2024-01-25T06:18:19;7.47;;;1.93;;
11439;SDS011;5776;51.814;4.510;2024-01-25T06:20:45;9.10;;;2.70;;
11439;SDS011;5776;51.814;4.510;2024-01-25T06:23:11;15.77;;;2.87;;
11439;SDS011;5776;51.814;4.510;2024-01-25T06:25:37;11.30;;;2.53;;
11439;SDS011;5776;51.814;4.510;2024-01-25T06:28:03;16.83;;;3.37;;
11439;SDS011;5776;51.814;4.510;2024-01-25T06:30:29;10.37;;;2.67;;
11439;SDS011;5776;51.814;4.510;2024-01-25T06:32:55;9.87;;;2.90;;
11439;SDS011;5776;51.814;4.510;2024-01-25T06:35:21;15.70;;;2.77;;
11439;SDS011;5776;51.814;4.510;2024-01-25T06:37:47;12.83;;;2.80;;
11439;SDS011;5776;51.814;4.510;2024-01-25T06:40:13;15.27;;;3.33;;
11439;SDS011;5776;51.814;4.510;2024-01-25T06:42:39;12.40;;;3.50;;
11439;SDS011;5776;51.814;4.510;2024-01-25T06:45:05;14.83;;;2.90;;
11439;SDS011;5776;51.814;4.510;2024-01-25T06:47:31;14.53;;;2.70;;
11439;SDS011;5776;51.814;4.510;2024-01-25T06:49:57;12.87;;;2.70;;
11439;SDS011;5776;51.814;4.510;2024-01-25T06:52:23;7.30;;;2.00;;
11439;SDS011;5776;51.814;4.510;2024-01-25T06:54:48;13.60;;;2.57;;
11439;SDS011;5776;51.814;4.510;2024-01-25T06:57:14;19.63;;;3.00;;
11439;SDS011;5776;51.814;4.510;2024-01-25T06:59:40;10.33;;;2.43;;
11439;SDS011;5776;51.814;4.510;2024-01-25T07:02:06;16.67;;;2.80;;
11439;SDS011;5776;51.814;4.510;2024-01-25T07:04:32;17.57;;;4.33;;
11439;SDS011;5776;51.814;4.510;2024-01-25T07:06:58;20.70;;;4.67;;
11439;SDS011;5776;51.814;4.510;2024-01-25T07:09:25;19.23;;;3.13;;
11439;SDS011;5776;51.814;4.510;2024-01-25T07:11:51;13.13;;;3.40;;
11439;SDS011;5776;51.814;4.510;2024-01-25T07:14:17;17.47;;;3.87;;
11439;SDS011;5776;51.814;4.510;2024-01-25T07:16:43;19.10;;;3.93;;
11439;SDS011;5776;51.814;4.510;2024-01-25T07:19:09;8.97;;;2.07;;
11439;SDS011;5776;51.814;4.510;2024-01-25T07:21:35;9.00;;;1.77;;
11439;SDS011;5776;51.814;4.510;2024-01-25T07:24:02;10.27;;;2.63;;
11439;SDS011;5776;51.814;4.510;2024-01-25T07:26:29;13.03;;;3.00;;
11439;SDS011;5776;51.814;4.510;2024-01-25T07:28:56;8.40;;;3.10;;
11439;SDS011;5776;51.814;4.510;2024-01-25T07:31:25;17.50;;;4.50;;
11439;SDS011;5776;51.814;4.510;2024-01-25T07:33:52;15.20;;;5.37;;
11439;SDS011;5776;51.814;4.510;2024-01-25T07:36:18;18.83;;;4.23;;
11439;SDS011;5776;51.814;4.510;2024-01-25T07:38:44;13.60;;;3.37;;
11439;SDS011;5776;51.814;4.510;2024-01-25T07:41:12;17.37;;;3.90;;
11439;SDS011;5776;51.814;4.510;2024-01-25T07:43:38;14.57;;;2.87;;
11439;SDS011;5776;51.814;4.510;2024-01-25T07:46:04;14.57;;;3.47;;
11439;SDS011;5776;51.814;4.510;2024-01-25T07:48:31;10.63;;;2.87;;
11439;SDS011;5776;51.814;4.510;2024-01-25T07:50:57;5.90;;;2.17;;
11439;SDS011;5776;51.814;4.510;2024-01-25T07:53:22;12.30;;;2.50;;
11439;SDS011;5776;51.814;4.510;2024-01-25T07:55:47;12.20;;;3.33;;
11439;SDS011;5776;51.814;4.510;2024-01-25T07:58:16;14.23;;;3.77;;
11439;SDS011;5776;51.814;4.510;2024-01-25T08:00:42;15.93;;;2.53;;
11439;SDS011;5776;51.814;4.510;2024-01-25T08:03:08;10.10;;;2.47;;
11439;SDS011;5776;51.814;4.510;2024-01-25T08:05:34;10.57;;;2.40;;
11439;SDS011;5776;51.814;4.510;2024-01-25T08:08:00;17.50;;;3.00;;
11439;SDS011;5776;51.814;4.510;2024-01-25T08:10:27;12.77;;;2.90;;
11439;SDS011;5776;51.814;4.510;2024-01-25T08:12:52;12.37;;;3.00;;
11439;SDS011;5776;51.814;4.510;2024-01-25T08:15:18;17.27;;;3.13;;
11439;SDS011;5776;51.814;4.510;2024-01-25T08:17:44;16.43;;;3.43;;
11439;SDS011;5776;51.814;4.510;2024-01-25T08:20:10;14.33;;;3.57;;
11439;SDS011;5776;51.814;4.510;2024-01-25T08:22:40;10.53;;;2.93;;
11439;SDS011;5776;51.814;4.510;2024-01-25T08:25:06;15.03;;;3.97;;
11439;SDS011;5776;51.814;4.510;2024-01-25T08:27:33;34.17;;;10.20;;
11439;SDS011;5776;51.814;4.510;2024-01-25T08:29:59;24.27;;;6.97;;
11439;SDS011;5776;51.814;4.510;2024-01-25T08:32:24;22.00;;;5.70;;
11439;SDS011;5776;51.814;4.510;2024-01-25T08:34:50;38.40;;;9.23;;
11439;SDS011;5776;51.814;4.510;2024-01-25T08:37:17;40.73;;;11.43;;
11439;SDS011;5776;51.814;4.510;2024-01-25T08:39:43;33.80;;;10.00;;
11439;SDS011;5776;51.814;4.510;2024-01-25T08:42:11;24.93;;;6.23;;
11439;SDS011;5776;51.814;4.510;2024-01-25T08:44:38;9.73;;;3.00;;
11439;SDS011;5776;51.814;4.510;2024-01-25T08:47:04;19.83;;;4.37;;
11439;SDS011;5776;51.814;4.510;2024-01-25T08:49:31;12.17;;;4.13;;
11439;SDS011;5776;51.814;4.510;2024-01-25T08:51:57;16.37;;;5.23;;
11439;SDS011;5776;51.814;4.510;2024-01-25T08:54:22;39.83;;;13.03;;
11439;SDS011;5776;51.814;4.510;2024-01-25T08:56:49;42.03;;;16.07;;
11439;SDS011;5776;51.814;4.510;2024-01-25T08:59:15;54.87;;;22.00;;
11439;SDS011;5776;51.814;4.510;2024-01-25T09:01:41;34.23;;;11.60;;
11439;SDS011;5776;51.814;4.510;2024-01-25T09:04:07;24.30;;;9.57;;
11439;SDS011;5776;51.814;4.510;2024-01-25T09:06:34;30.43;;;9.10;;
11439;SDS011;5776;51.814;4.510;2024-01-25T09:09:02;16.50;;;6.43;;
11439;SDS011;5776;51.814;4.510;2024-01-25T09:11:29;10.23;;;4.83;;
11439;SDS011;5776;51.814;4.510;2024-01-25T09:13:55;12.60;;;3.97;;
11439;SDS011;5776;51.814;4.510;2024-01-25T09:16:20;18.43;;;3.93;;
11439;SDS011;5776;51.814;4.510;2024-01-25T09:18:47;15.83;;;4.93;;
11439;SDS011;5776;51.814;4.510;2024-01-25T09:21:13;11.97;;;3.93;;
11439;SDS011;5776;51.814;4.510;2024-01-25T09:23:39;18.37;;;4.20;;
11439;SDS011;5776;51.814;4.510;2024-01-25T09:26:07;24.23;;;8.27;;
11439;SDS011;5776;51.814;4.510;2024-01-25T09:28:32;21.80;;;8.93;;
11439;SDS011;5776;51.814;4.510;2024-01-25T09:30:59;19.80;;;6.83;;
11439;SDS011;5776;51.814;4.510;2024-01-25T09:33:24;25.20;;;9.40;;
11439;SDS011;5776;51.814;4.510;2024-01-25T09:35:49;29.60;;;13.27;;
11439;SDS011;5776;51.814;4.510;2024-01-25T09:38:18;24.93;;;7.57;;
11439;SDS011;5776;51.814;4.510;2024-01-25T09:40:44;18.97;;;5.30;;
11439;SDS011;5776;51.814;4.510;2024-01-25T09:43:10;23.67;;;6.03;;
11439;SDS011;5776;51.814;4.510;2024-01-25T09:45:38;12.90;;;4.07;;
11439;SDS011;5776;51.814;4.510;2024-01-25T09:48:07;22.93;;;4.77;;
11439;SDS011;5776;51.814;4.510;2024-01-25T09:50:33;17.77;;;6.30;;
11439;SDS011;5776;51.814;4.510;2024-01-25T09:52:59;17.27;;;6.10;;
11439;SDS011;5776;51.814;4.510;2024-01-25T09:55:25;22.53;;;5.77;;
11439;SDS011;5776;51.814;4.510;2024-01-25T09:57:53;21.83;;;6.33;;
11439;SDS011;5776;51.814;4.510;2024-01-25T10:00:23;17.77;;;4.57;;
11439;SDS011;5776;51.814;4.510;2024-01-25T10:02:49;15.07;;;4.03;;
11439;SDS011;5776;51.814;4.510;2024-01-25T10:05:16;19.37;;;5.07;;
11439;SDS011;5776;51.814;4.510;2024-01-25T10:07:43;19.07;;;4.40;;
11439;SDS011;5776;51.814;4.510;2024-01-25T10:10:11;21.53;;;5.20;;
11439;SDS011;5776;51.814;4.510;2024-01-25T10:12:40;27.93;;;7.33;;
11439;SDS011;5776;51.814;4.510;2024-01-25T10:15:08;26.53;;;8.87;;
11439;SDS011;5776;51.814;4.510;2024-01-25T10:17:34;21.43;;;7.27;;
11439;SDS011;5776;51.814;4.510;2024-01-25T10:20:00;20.43;;;6.37;;
11439;SDS011;5776;51.814;4.510;2024-01-25T10:22:27;25.90;;;7.23;;
11439;SDS011;5776;51.814;4.510;2024-01-25T10:24:53;19.83;;;6.67;;
11439;SDS011;5776;51.814;4.510;2024-01-25T10:27:20;25.50;;;7.27;;
11439;SDS011;5776;51.814;4.510;2024-01-25T10:29:47;28.37;;;7.63;;
11439;SDS011;5776;51.814;4.510;2024-01-25T10:32:13;30.10;;;7.87;;
11439;SDS011;5776;51.814;4.510;2024-01-25T10:34:39;21.67;;;7.00;;
11439;SDS011;5776;51.814;4.510;2024-01-25T10:37:05;24.97;;;6.43;;
11439;SDS011;5776;51.814;4.510;2024-01-25T10:39:34;24.70;;;6.00;;
11439;SDS011;5776;51.814;4.510;2024-01-25T10:42:00;18.93;;;6.40;;
11439;SDS011;5776;51.814;4.510;2024-01-25T10:44:26;26.03;;;7.07;;
11439;SDS011;5776;51.814;4.510;2024-01-25T10:46:52;22.97;;;6.87;;
11439;SDS011;5776;51.814;4.510;2024-01-25T10:49:20;21.67;;;5.77;;
11439;SDS011;5776;51.814;4.510;2024-01-25T10:51:49;19.07;;;5.63;;
11439;SDS011;5776;51.814;4.510;2024-01-25T10:54:16;20.20;;;5.60;;
11439;SDS011;5776;51.814;4.510;2024-01-25T10:56:42;24.30;;;5.93;;
11439;SDS011;5776;51.814;4.510;2024-01-25T10:59:12;21.17;;;5.90;;
11439;SDS011;5776;51.814;4.510;2024-01-25T11:01:45;25.60;;;5.43;;
11439;SDS011;5776;51.814;4.510;2024-01-25T11:04:12;23.33;;;6.13;;
11439;SDS011;5776;51.814;4.510;2024-01-25T11:06:47;19.03;;;5.30;;
11439;SDS011;5776;51.814;4.510;2024-01-25T11:09:19;28.70;;;6.03;;
11439;SDS011;5776;51.814;4.510;2024-01-25T11:11:47;19.73;;;6.17;;
11439;SDS011;5776;51.814;4.510;2024-01-25T11:14:19;19.53;;;6.33;;
11439;SDS011;5776;51.814;4.510;2024-01-25T11:16:45;20.73;;;6.03;;
11439;SDS011;5776;51.814;4.510;2024-01-25T11:19:20;25.37;;;6.47;;
11439;SDS011;5776;51.814;4.510;2024-01-25T11:21:47;19.97;;;5.73;;
11439;SDS011;5776;51.814;4.510;2024-01-25T11:24:22;26.20;;;6.50;;
11439;SDS011;5776;51.814;4.510;2024-01-25T11:26:49;20.70;;;6.23;;
11439;SDS011;5776;51.814;4.510;2024-01-25T11:29:15;21.53;;;6.20;;
11439;SDS011;5776;51.814;4.510;2024-01-25T11:31:43;24.67;;;5.67;;
11439;SDS011;5776;51.814;4.510;2024-01-25T11:34:10;21.90;;;6.37;;
11439;SDS011;5776;51.814;4.510;2024-01-25T11:36:37;24.57;;;6.37;;
11439;SDS011;5776;51.814;4.510;2024-01-25T11:39:04;24.50;;;7.10;;
11439;SDS011;5776;51.814;4.510;2024-01-25T11:41:31;25.13;;;6.17;;
11439;SDS011;5776;51.814;4.510;2024-01-25T11:43:58;24.87;;;6.50;;
11439;SDS011;5776;51.814;4.510;2024-01-25T11:46:24;25.87;;;6.87;;
11439;SDS011;5776;51.814;4.510;2024-01-25T11:48:50;32.00;;;8.80;;
11439;SDS011;5776;51.814;4.510;2024-01-25T11:51:17;36.37;;;7.97;;
11439;SDS011;5776;51.814;4.510;2024-01-25T11:53:43;25.00;;;7.70;;
11439;SDS011;5776;51.814;4.510;2024-01-25T11:56:09;26.40;;;7.17;;
11439;SDS011;5776;51.814;4.510;2024-01-25T11:58:37;28.17;;;7.50;;
11439;SDS011;5776;51.814;4.510;2024-01-25T12:01:06;30.00;;;7.63;;
11439;SDS011;5776;51.814;4.510;2024-01-25T12:03:36;26.10;;;7.03;;
11439;SDS011;5776;51.814;4.510;2024-01-25T12:06:03;24.53;;;6.97;;
11439;SDS011;5776;51.814;4.510;2024-01-25T12:08:33;30.93;;;8.37;;
11439;SDS011;5776;51.814;4.510;2024-01-25T12:11:06;29.03;;;7.10;;
11439;SDS011;5776;51.814;4.510;2024-01-25T12:13:33;28.77;;;8.57;;
11439;SDS011;5776;51.814;4.510;2024-01-25T12:16:02;29.70;;;8.53;;
11439;SDS011;5776;51.814;4.510;2024-01-25T12:18:28;29.33;;;9.63;;
11439;SDS011;5776;51.814;4.510;2024-01-25T12:20:57;26.20;;;8.67;;
11439;SDS011;5776;51.814;4.510;2024-01-25T12:23:29;23.90;;;8.17;;
11439;SDS011;5776;51.814;4.510;2024-01-25T12:25:58;26.37;;;8.00;;
11439;SDS011;5776;51.814;4.510;2024-01-25T12:28:26;24.43;;;7.07;;
11439;SDS011;5776;51.814;4.510;2024-01-25T12:30:53;22.97;;;6.70;;
11439;SDS011;5776;51.814;4.510;2024-01-25T12:33:19;29.43;;;8.13;;
11439;SDS011;5776;51.814;4.510;2024-01-25T12:35:45;23.80;;;7.97;;
11439;SDS011;5776;51.814;4.510;2024-01-25T12:38:11;29.50;;;7.77;;
11439;SDS011;5776;51.814;4.510;2024-01-25T12:40:37;22.27;;;7.87;;
11439;SDS011;5776;51.814;4.510;2024-01-25T12:43:02;31.53;;;7.93;;
11439;SDS011;5776;51.814;4.510;2024-01-25T12:45:28;24.07;;;6.97;;
11439;SDS011;5776;51.814;4.510;2024-01-25T12:47:54;29.53;;;6.67;;
11439;SDS011;5776;51.814;4.510;2024-01-25T12:50:20;34.63;;;7.07;;
11439;SDS011;5776;51.814;4.510;2024-01-25T12:52:46;27.93;;;7.47;;
11439;SDS011;5776;51.814;4.510;2024-01-25T12:55:12;25.73;;;6.83;;
11439;SDS011;5776;51.814;4.510;2024-01-25T12:57:38;28.00;;;6.83;;
11439;SDS011;5776;51.814;4.510;2024-01-25T13:00:04;24.13;;;6.73;;
11439;SDS011;5776;51.814;4.510;2024-01-25T13:02:31;33.17;;;7.47;;
11439;SDS011;5776;51.814;4.510;2024-01-25T13:04:57;26.97;;;6.43;;
11439;SDS011;5776;51.814;4.510;2024-01-25T13:07:22;24.60;;;6.60;;
11439;SDS011;5776;51.814;4.510;2024-01-25T13:09:48;27.07;;;6.87;;
11439;SDS011;5776;51.814;4.510;2024-01-25T13:12:14;19.77;;;6.30;;
11439;SDS011;5776;51.814;4.510;2024-01-25T13:14:40;26.77;;;8.80;;
11439;SDS011;5776;51.814;4.510;2024-01-25T13:17:06;24.97;;;8.63;;
11439;SDS011;5776;51.814;4.510;2024-01-25T13:19:34;23.80;;;8.87;;
11439;SDS011;5776;51.814;4.510;2024-01-25T13:22:00;31.90;;;9.67;;
11439;SDS011;5776;51.814;4.510;2024-01-25T13:24:26;26.27;;;9.93;;
11439;SDS011;5776;51.814;4.510;2024-01-25T13:26:52;21.40;;;9.97;;
11439;SDS011;5776;51.814;4.510;2024-01-25T13:29:17;23.10;;;9.17;;
11439;SDS011;5776;51.814;4.510;2024-01-25T13:31:43;23.93;;;9.03;;
11439;SDS011;5776;51.814;4.510;2024-01-25T13:34:09;25.97;;;9.87;;
11439;SDS011;5776;51.814;4.510;2024-01-25T13:36:35;27.10;;;11.37;;
11439;SDS011;5776;51.814;4.510;2024-01-25T13:39:01;28.70;;;11.93;;
11439;SDS011;5776;51.814;4.510;2024-01-25T13:41:27;25.03;;;10.27;;
11439;SDS011;5776;51.814;4.510;2024-01-25T13:43:53;25.90;;;10.40;;
11439;SDS011;5776;51.814;4.510;2024-01-25T13:46:19;22.90;;;8.60;;
11439;SDS011;5776;51.814;4.510;2024-01-25T13:48:45;11.60;;;6.57;;
11439;SDS011;5776;51.814;4.510;2024-01-25T13:51:12;16.13;;;6.27;;
11439;SDS011;5776;51.814;4.510;2024-01-25T13:53:38;18.40;;;7.03;;
11439;SDS011;5776;51.814;4.510;2024-01-25T13:56:04;19.90;;;6.77;;
11439;SDS011;5776;51.814;4.510;2024-01-25T13:58:30;18.33;;;8.07;;
11439;SDS011;5776;51.814;4.510;2024-01-25T14:00:57;18.27;;;9.13;;
11439;SDS011;5776;51.814;4.510;2024-01-25T14:03:23;19.13;;;7.77;;
11439;SDS011;5776;51.814;4.510;2024-01-25T14:05:49;22.70;;;7.70;;
11439;SDS011;5776;51.814;4.510;2024-01-25T14:08:14;21.90;;;7.73;;
11439;SDS011;5776;51.814;4.510;2024-01-25T14:10:40;13.93;;;5.97;;
11439;SDS011;5776;51.814;4.510;2024-01-25T14:13:06;16.43;;;6.37;;
11439;SDS011;5776;51.814;4.510;2024-01-25T14:15:32;11.80;;;5.07;;
11439;SDS011;5776;51.814;4.510;2024-01-25T14:17:59;13.67;;;4.80;;
11439;SDS011;5776;51.814;4.510;2024-01-25T14:20:25;17.27;;;7.20;;
11439;SDS011;5776;51.814;4.510;2024-01-25T14:22:52;20.63;;;7.87;;
11439;SDS011;5776;51.814;4.510;2024-01-25T14:25:18;19.00;;;7.57;;
11439;SDS011;5776;51.814;4.510;2024-01-25T14:27:44;19.43;;;8.00;;
11439;SDS011;5776;51.814;4.510;2024-01-25T14:30:12;22.67;;;8.83;;
11439;SDS011;5776;51.814;4.510;2024-01-25T14:32:39;21.53;;;8.70;;
11439;SDS011;5776;51.814;4.510;2024-01-25T14:35:06;24.93;;;9.87;;
11439;SDS011;5776;51.814;4.510;2024-01-25T14:37:32;19.13;;;10.03;;
11439;SDS011;5776;51.814;4.510;2024-01-25T14:39:58;23.20;;;9.40;;
11439;SDS011;5776;51.814;4.510;2024-01-25T14:42:24;24.83;;;9.90;;